sensor_id;sensor_type;location;lat;lon;timestamp;temperature;humidity
15013;DHT22;7603;49.432;11.418;2022-08-05T00:01:40;21.90;96.40
15013;DHT22;7603;49.432;11.418;2022-08-05T00:04:06;21.90;96.50
15013;DHT22;7603;49.432;11.418;2022-08-05T00:06:32;21.90;96.60
15013;DHT22;7603;49.432;11.418;2022-08-05T00:08:57;22.00;96.80
15013;DHT22;7603;49.432;11.418;2022-08-05T00:11:24;22.00;97.10
15013;DHT22;7603;49.432;11.418;2022-08-05T00:13:50;22.00;97.10
15013;DHT22;7603;49.432;11.418;2022-08-05T00:16:15;21.90;97.60
15013;DHT22;7603;49.432;11.418;2022-08-05T00:18:43;21.90;97.60
15013;DHT22;7603;49.432;11.418;2022-08-05T00:21:09;21.90;98.00
15013;DHT22;7603;49.432;11.418;2022-08-05T00:23:36;21.90;98.50
15013;DHT22;7603;49.432;11.418;2022-08-05T00:26:02;21.80;98.60
15013;DHT22;7603;49.432;11.418;2022-08-05T00:28:28;21.80;99.00
15013;DHT22;7603;49.432;11.418;2022-08-05T00:30:53;21.80;99.50
15013;DHT22;7603;49.432;11.418;2022-08-05T00:33:20;21.70;99.70
15013;DHT22;7603;49.432;11.418;2022-08-05T00:35:46;21.70;99.90
15013;DHT22;7603;49.432;11.418;2022-08-05T00:38:11;21.70;99.90
15013;DHT22;7603;49.432;11.418;2022-08-05T00:40:51;21.70;99.90
15013;DHT22;7603;49.432;11.418;2022-08-05T00:43:17;21.70;99.90
15013;DHT22;7603;49.432;11.418;2022-08-05T00:45:43;21.70;99.90
15013;DHT22;7603;49.432;11.418;2022-08-05T00:48:29;21.70;99.90
15013;DHT22;7603;49.432;11.418;2022-08-05T00:50:55;21.70;99.90
15013;DHT22;7603;49.432;11.418;2022-08-05T00:53:21;21.70;99.90
15013;DHT22;7603;49.432;11.418;2022-08-05T00:55:48;21.70;99.90
15013;DHT22;7603;49.432;11.418;2022-08-05T00:58:15;21.70;99.90
15013;DHT22;7603;49.432;11.418;2022-08-05T01:00:44;21.70;99.90
15013;DHT22;7603;49.432;11.418;2022-08-05T01:03:11;21.70;99.90
15013;DHT22;7603;49.432;11.418;2022-08-05T01:05:36;21.70;99.90
15013;DHT22;7603;49.432;11.418;2022-08-05T01:08:03;21.70;99.90
15013;DHT22;7603;49.432;11.418;2022-08-05T01:10:46;21.70;99.90
15013;DHT22;7603;49.432;11.418;2022-08-05T01:16:05;21.60;99.90
15013;DHT22;7603;49.432;11.418;2022-08-05T01:18:41;21.60;99.90
15013;DHT22;7603;49.432;11.418;2022-08-05T01:21:45;21.60;99.90
15013;DHT22;7603;49.432;11.418;2022-08-05T01:27:12;21.60;99.90
15013;DHT22;7603;49.432;11.418;2022-08-05T01:29:49;21.60;99.90
15013;DHT22;7603;49.432;11.418;2022-08-05T01:32:20;21.50;99.90
15013;DHT22;7603;49.432;11.418;2022-08-05T01:34:50;21.50;99.90
15013;DHT22;7603;49.432;11.418;2022-08-05T01:40:04;21.50;99.90
15013;DHT22;7603;49.432;11.418;2022-08-05T01:42:30;21.50;99.90
15013;DHT22;7603;49.432;11.418;2022-08-05T01:44:58;21.50;99.90
15013;DHT22;7603;49.432;11.418;2022-08-05T01:47:25;21.50;99.90
15013;DHT22;7603;49.432;11.418;2022-08-05T01:49:53;21.50;99.90
15013;DHT22;7603;49.432;11.418;2022-08-05T01:52:20;21.50;99.90
15013;DHT22;7603;49.432;11.418;2022-08-05T01:54:50;21.50;99.90
15013;DHT22;7603;49.432;11.418;2022-08-05T01:57:23;21.50;99.90
15013;DHT22;7603;49.432;11.418;2022-08-05T01:59:50;21.50;99.90
15013;DHT22;7603;49.432;11.418;2022-08-05T02:02:18;21.50;99.90
15013;DHT22;7603;49.432;11.418;2022-08-05T02:04:46;21.50;99.90
15013;DHT22;7603;49.432;11.418;2022-08-05T02:07:12;21.50;99.90
15013;DHT22;7603;49.432;11.418;2022-08-05T02:09:38;21.40;99.90
15013;DHT22;7603;49.432;11.418;2022-08-05T02:12:30;21.50;99.90
15013;DHT22;7603;49.432;11.418;2022-08-05T02:15:07;21.40;99.90
15013;DHT22;7603;49.432;11.418;2022-08-05T02:18:02;21.40;99.90
15013;DHT22;7603;49.432;11.418;2022-08-05T02:23:23;21.40;99.90
15013;DHT22;7603;49.432;11.418;2022-08-05T02:25:51;21.40;99.90
15013;DHT22;7603;49.432;11.418;2022-08-05T02:28:25;21.40;99.90
15013;DHT22;7603;49.432;11.418;2022-08-05T02:30:55;21.40;99.90
15013;DHT22;7603;49.432;11.418;2022-08-05T02:33:23;21.40;99.90
15013;DHT22;7603;49.432;11.418;2022-08-05T02:35:51;21.40;99.90
15013;DHT22;7603;49.432;11.418;2022-08-05T02:38:17;21.30;99.90
15013;DHT22;7603;49.432;11.418;2022-08-05T02:40:44;21.30;99.90
15013;DHT22;7603;49.432;11.418;2022-08-05T02:43:12;21.30;99.90
15013;DHT22;7603;49.432;11.418;2022-08-05T02:45:39;21.30;99.90
15013;DHT22;7603;49.432;11.418;2022-08-05T02:48:07;21.20;99.90
15013;DHT22;7603;49.432;11.418;2022-08-05T02:50:34;21.20;99.90
15013;DHT22;7603;49.432;11.418;2022-08-05T02:53:00;21.20;99.90
15013;DHT22;7603;49.432;11.418;2022-08-05T02:55:27;21.30;99.90
15013;DHT22;7603;49.432;11.418;2022-08-05T02:57:55;21.30;99.90
15013;DHT22;7603;49.432;11.418;2022-08-05T03:00:21;21.30;99.90
15013;DHT22;7603;49.432;11.418;2022-08-05T03:02:47;21.30;99.90
15013;DHT22;7603;49.432;11.418;2022-08-05T03:05:14;21.40;99.90
15013;DHT22;7603;49.432;11.418;2022-08-05T03:07:41;21.40;99.90
15013;DHT22;7603;49.432;11.418;2022-08-05T03:10:08;21.40;99.90
15013;DHT22;7603;49.432;11.418;2022-08-05T03:12:38;21.40;99.90
15013;DHT22;7603;49.432;11.418;2022-08-05T03:15:07;21.40;99.90
15013;DHT22;7603;49.432;11.418;2022-08-05T03:17:33;21.40;99.90
15013;DHT22;7603;49.432;11.418;2022-08-05T03:19:59;21.40;99.90
15013;DHT22;7603;49.432;11.418;2022-08-05T03:22:24;21.40;99.90
15013;DHT22;7603;49.432;11.418;2022-08-05T03:24:51;21.50;99.90
15013;DHT22;7603;49.432;11.418;2022-08-05T03:27:18;21.50;99.90
15013;DHT22;7603;49.432;11.418;2022-08-05T03:29:44;21.50;99.90
15013;DHT22;7603;49.432;11.418;2022-08-05T03:32:10;21.50;99.90
15013;DHT22;7603;49.432;11.418;2022-08-05T03:34:37;21.60;99.90
15013;DHT22;7603;49.432;11.418;2022-08-05T03:37:03;21.60;99.90
15013;DHT22;7603;49.432;11.418;2022-08-05T03:39:29;21.60;99.90
15013;DHT22;7603;49.432;11.418;2022-08-05T03:41:56;21.60;99.90
15013;DHT22;7603;49.432;11.418;2022-08-05T03:44:21;21.70;99.90
15013;DHT22;7603;49.432;11.418;2022-08-05T03:46:47;21.70;99.90
15013;DHT22;7603;49.432;11.418;2022-08-05T03:49:13;21.70;99.90
15013;DHT22;7603;49.432;11.418;2022-08-05T03:51:42;21.80;99.90
15013;DHT22;7603;49.432;11.418;2022-08-05T03:54:18;21.80;99.90
15013;DHT22;7603;49.432;11.418;2022-08-05T03:56:46;21.90;99.90
15013;DHT22;7603;49.432;11.418;2022-08-05T03:59:27;21.90;99.90
15013;DHT22;7603;49.432;11.418;2022-08-05T04:01:54;21.90;99.90
15013;DHT22;7603;49.432;11.418;2022-08-05T04:04:21;21.90;99.90
15013;DHT22;7603;49.432;11.418;2022-08-05T04:06:49;21.90;99.90
15013;DHT22;7603;49.432;11.418;2022-08-05T04:09:16;22.00;99.90
15013;DHT22;7603;49.432;11.418;2022-08-05T04:11:42;22.20;99.90
15013;DHT22;7603;49.432;11.418;2022-08-05T04:14:09;22.50;99.90
15013;DHT22;7603;49.432;11.418;2022-08-05T04:16:35;22.70;99.90
15013;DHT22;7603;49.432;11.418;2022-08-05T04:19:02;22.80;99.90
15013;DHT22;7603;49.432;11.418;2022-08-05T04:21:28;22.90;99.90
15013;DHT22;7603;49.432;11.418;2022-08-05T04:23:54;22.90;99.90
15013;DHT22;7603;49.432;11.418;2022-08-05T04:26:20;22.90;99.90
15013;DHT22;7603;49.432;11.418;2022-08-05T04:28:46;22.90;99.90
15013;DHT22;7603;49.432;11.418;2022-08-05T04:31:11;22.80;99.90
15013;DHT22;7603;49.432;11.418;2022-08-05T04:33:37;22.90;99.90
15013;DHT22;7603;49.432;11.418;2022-08-05T04:36:03;22.80;99.90
15013;DHT22;7603;49.432;11.418;2022-08-05T04:38:28;22.70;99.90
15013;DHT22;7603;49.432;11.418;2022-08-05T04:40:54;22.70;99.90
15013;DHT22;7603;49.432;11.418;2022-08-05T04:43:20;22.70;99.90
15013;DHT22;7603;49.432;11.418;2022-08-05T04:45:45;22.60;99.90
15013;DHT22;7603;49.432;11.418;2022-08-05T04:48:13;22.60;99.90
15013;DHT22;7603;49.432;11.418;2022-08-05T04:50:47;22.60;99.90
15013;DHT22;7603;49.432;11.418;2022-08-05T04:53:15;22.50;99.90
15013;DHT22;7603;49.432;11.418;2022-08-05T04:55:52;22.50;99.90
15013;DHT22;7603;49.432;11.418;2022-08-05T04:58:19;22.60;99.90
15013;DHT22;7603;49.432;11.418;2022-08-05T05:00:45;22.50;99.90
15013;DHT22;7603;49.432;11.418;2022-08-05T05:03:11;22.50;99.90
15013;DHT22;7603;49.432;11.418;2022-08-05T05:05:37;22.50;99.90
15013;DHT22;7603;49.432;11.418;2022-08-05T05:08:06;22.50;99.90
15013;DHT22;7603;49.432;11.418;2022-08-05T05:10:38;22.60;99.90
15013;DHT22;7603;49.432;11.418;2022-08-05T05:13:09;22.60;99.90
15013;DHT22;7603;49.432;11.418;2022-08-05T05:15:35;22.60;99.90
15013;DHT22;7603;49.432;11.418;2022-08-05T05:18:01;22.70;99.90
15013;DHT22;7603;49.432;11.418;2022-08-05T05:20:27;22.80;99.90
15013;DHT22;7603;49.432;11.418;2022-08-05T05:22:53;22.90;99.90
15013;DHT22;7603;49.432;11.418;2022-08-05T05:25:18;23.00;99.90
15013;DHT22;7603;49.432;11.418;2022-08-05T05:27:44;23.10;99.90
15013;DHT22;7603;49.432;11.418;2022-08-05T05:30:10;23.20;99.90
15013;DHT22;7603;49.432;11.418;2022-08-05T05:32:36;23.40;99.90
15013;DHT22;7603;49.432;11.418;2022-08-05T05:35:02;23.50;99.90
15013;DHT22;7603;49.432;11.418;2022-08-05T05:37:27;23.70;99.90
15013;DHT22;7603;49.432;11.418;2022-08-05T05:39:53;23.90;99.90
15013;DHT22;7603;49.432;11.418;2022-08-05T05:42:18;24.10;99.90
15013;DHT22;7603;49.432;11.418;2022-08-05T05:44:44;24.30;99.90
15013;DHT22;7603;49.432;11.418;2022-08-05T05:47:10;24.50;99.90
15013;DHT22;7603;49.432;11.418;2022-08-05T05:49:35;24.60;99.90
15013;DHT22;7603;49.432;11.418;2022-08-05T05:52:01;24.70;99.90
15013;DHT22;7603;49.432;11.418;2022-08-05T05:54:26;24.80;99.90
15013;DHT22;7603;49.432;11.418;2022-08-05T05:56:52;24.90;99.90
15013;DHT22;7603;49.432;11.418;2022-08-05T05:59:18;25.00;99.90
15013;DHT22;7603;49.432;11.418;2022-08-05T06:01:43;25.00;99.10
15013;DHT22;7603;49.432;11.418;2022-08-05T06:04:12;25.00;98.60
15013;DHT22;7603;49.432;11.418;2022-08-05T06:06:39;25.10;97.70
15013;DHT22;7603;49.432;11.418;2022-08-05T06:09:05;25.00;97.30
15013;DHT22;7603;49.432;11.418;2022-08-05T06:11:32;25.10;96.40
15013;DHT22;7603;49.432;11.418;2022-08-05T06:13:58;25.20;96.10
15013;DHT22;7603;49.432;11.418;2022-08-05T06:16:24;25.30;95.50
15013;DHT22;7603;49.432;11.418;2022-08-05T06:18:50;25.40;94.60
15013;DHT22;7603;49.432;11.418;2022-08-05T06:21:16;25.60;93.00
15013;DHT22;7603;49.432;11.418;2022-08-05T06:23:41;25.60;91.30
15013;DHT22;7603;49.432;11.418;2022-08-05T06:26:07;25.50;90.60
15013;DHT22;7603;49.432;11.418;2022-08-05T06:28:33;25.60;90.70
15013;DHT22;7603;49.432;11.418;2022-08-05T06:30:58;25.70;90.60
15013;DHT22;7603;49.432;11.418;2022-08-05T06:33:24;25.80;90.20
15013;DHT22;7603;49.432;11.418;2022-08-05T06:35:50;25.90;89.30
15013;DHT22;7603;49.432;11.418;2022-08-05T06:38:16;26.10;88.30
15013;DHT22;7603;49.432;11.418;2022-08-05T06:40:42;26.30;87.00
15013;DHT22;7603;49.432;11.418;2022-08-05T06:43:07;26.60;85.20
15013;DHT22;7603;49.432;11.418;2022-08-05T06:45:34;26.90;83.90
15013;DHT22;7603;49.432;11.418;2022-08-05T06:47:59;27.10;85.10
15013;DHT22;7603;49.432;11.418;2022-08-05T06:50:25;27.20;84.30
15013;DHT22;7603;49.432;11.418;2022-08-05T06:52:51;27.20;81.60
15013;DHT22;7603;49.432;11.418;2022-08-05T06:55:17;27.50;80.80
15013;DHT22;7603;49.432;11.418;2022-08-05T06:57:43;27.60;78.90
15013;DHT22;7603;49.432;11.418;2022-08-05T07:00:09;27.80;78.30
15013;DHT22;7603;49.432;11.418;2022-08-05T07:02:44;28.00;78.10
15013;DHT22;7603;49.432;11.418;2022-08-05T07:05:10;28.00;77.50
15013;DHT22;7603;49.432;11.418;2022-08-05T07:07:37;28.00;77.30
15013;DHT22;7603;49.432;11.418;2022-08-05T07:10:03;28.10;76.90
15013;DHT22;7603;49.432;11.418;2022-08-05T07:12:29;28.00;76.40
15013;DHT22;7603;49.432;11.418;2022-08-05T07:15:13;27.90;76.30
15013;DHT22;7603;49.432;11.418;2022-08-05T07:17:57;27.80;77.00
15013;DHT22;7603;49.432;11.418;2022-08-05T07:20:23;27.70;77.80
15013;DHT22;7603;49.432;11.418;2022-08-05T07:22:48;27.50;77.60
15013;DHT22;7603;49.432;11.418;2022-08-05T07:25:14;27.40;77.40
15013;DHT22;7603;49.432;11.418;2022-08-05T07:27:40;27.20;77.80
15013;DHT22;7603;49.432;11.418;2022-08-05T07:30:06;27.00;78.90
15013;DHT22;7603;49.432;11.418;2022-08-05T07:32:36;27.00;79.50
15013;DHT22;7603;49.432;11.418;2022-08-05T07:35:10;27.00;80.10
15013;DHT22;7603;49.432;11.418;2022-08-05T07:37:36;27.00;80.70
15013;DHT22;7603;49.432;11.418;2022-08-05T07:40:02;27.00;81.50
15013;DHT22;7603;49.432;11.418;2022-08-05T07:42:28;27.10;82.10
15013;DHT22;7603;49.432;11.418;2022-08-05T07:44:53;27.00;82.30
15013;DHT22;7603;49.432;11.418;2022-08-05T07:47:20;27.00;83.10
15013;DHT22;7603;49.432;11.418;2022-08-05T07:49:46;27.10;83.80
15013;DHT22;7603;49.432;11.418;2022-08-05T07:52:11;27.20;83.00
15013;DHT22;7603;49.432;11.418;2022-08-05T07:54:37;27.40;82.70
15013;DHT22;7603;49.432;11.418;2022-08-05T07:57:03;27.60;82.50
15013;DHT22;7603;49.432;11.418;2022-08-05T07:59:29;27.80;81.90
15013;DHT22;7603;49.432;11.418;2022-08-05T08:01:54;28.00;81.20
15013;DHT22;7603;49.432;11.418;2022-08-05T08:04:20;28.10;80.00
15013;DHT22;7603;49.432;11.418;2022-08-05T08:06:46;28.10;78.50
15013;DHT22;7603;49.432;11.418;2022-08-05T08:09:11;28.00;78.50
15013;DHT22;7603;49.432;11.418;2022-08-05T08:11:37;27.90;78.80
15013;DHT22;7603;49.432;11.418;2022-08-05T08:14:03;28.00;78.70
15013;DHT22;7603;49.432;11.418;2022-08-05T08:16:28;28.10;78.40
15013;DHT22;7603;49.432;11.418;2022-08-05T08:18:54;28.30;77.90
15013;DHT22;7603;49.432;11.418;2022-08-05T08:21:20;28.70;77.30
15013;DHT22;7603;49.432;11.418;2022-08-05T08:23:45;29.10;75.70
15013;DHT22;7603;49.432;11.418;2022-08-05T08:26:12;29.40;74.10
15013;DHT22;7603;49.432;11.418;2022-08-05T08:28:37;29.70;71.70
15013;DHT22;7603;49.432;11.418;2022-08-05T08:31:05;30.00;69.70
15013;DHT22;7603;49.432;11.418;2022-08-05T08:33:31;30.10;68.50
15013;DHT22;7603;49.432;11.418;2022-08-05T08:35:56;30.30;67.70
15013;DHT22;7603;49.432;11.418;2022-08-05T08:38:22;30.50;67.20
15013;DHT22;7603;49.432;11.418;2022-08-05T08:40:48;30.70;66.00
15013;DHT22;7603;49.432;11.418;2022-08-05T08:43:13;30.80;65.10
15013;DHT22;7603;49.432;11.418;2022-08-05T08:45:41;30.90;64.00
15013;DHT22;7603;49.432;11.418;2022-08-05T08:48:10;31.00;63.60
15013;DHT22;7603;49.432;11.418;2022-08-05T08:50:39;31.00;63.30
15013;DHT22;7603;49.432;11.418;2022-08-05T08:53:06;30.90;63.00
15013;DHT22;7603;49.432;11.418;2022-08-05T08:55:32;30.80;63.10
15013;DHT22;7603;49.432;11.418;2022-08-05T08:58:02;30.70;63.20
15013;DHT22;7603;49.432;11.418;2022-08-05T09:00:29;30.60;63.70
15013;DHT22;7603;49.432;11.418;2022-08-05T09:02:56;30.50;63.90
15013;DHT22;7603;49.432;11.418;2022-08-05T09:05:21;30.40;64.40
15013;DHT22;7603;49.432;11.418;2022-08-05T09:07:48;30.30;64.60
15013;DHT22;7603;49.432;11.418;2022-08-05T09:10:15;30.30;64.90
15013;DHT22;7603;49.432;11.418;2022-08-05T09:12:40;30.50;64.90
15013;DHT22;7603;49.432;11.418;2022-08-05T09:15:06;30.90;64.20
15013;DHT22;7603;49.432;11.418;2022-08-05T09:17:32;31.40;63.30
15013;DHT22;7603;49.432;11.418;2022-08-05T09:19:59;31.90;62.30
15013;DHT22;7603;49.432;11.418;2022-08-05T09:22:25;32.50;60.40
15013;DHT22;7603;49.432;11.418;2022-08-05T09:25:01;32.90;58.70
15013;DHT22;7603;49.432;11.418;2022-08-05T09:27:34;33.30;57.60
15013;DHT22;7603;49.432;11.418;2022-08-05T09:30:02;33.80;57.30
15013;DHT22;7603;49.432;11.418;2022-08-05T09:32:36;34.10;56.20
15013;DHT22;7603;49.432;11.418;2022-08-05T09:35:13;34.50;54.40
15013;DHT22;7603;49.432;11.418;2022-08-05T09:37:50;34.90;53.30
15013;DHT22;7603;49.432;11.418;2022-08-05T09:42:57;35.00;52.00
15013;DHT22;7603;49.432;11.418;2022-08-05T09:45:39;35.10;52.30
15013;DHT22;7603;49.432;11.418;2022-08-05T09:48:20;35.20;52.00
15013;DHT22;7603;49.432;11.418;2022-08-05T09:50:54;35.60;51.20
15013;DHT22;7603;49.432;11.418;2022-08-05T09:53:20;35.90;50.90
15013;DHT22;7603;49.432;11.418;2022-08-05T09:55:50;35.80;50.70
15013;DHT22;7603;49.432;11.418;2022-08-05T09:58:16;35.70;50.90
15013;DHT22;7603;49.432;11.418;2022-08-05T10:01:02;35.70;50.00
15013;DHT22;7603;49.432;11.418;2022-08-05T10:03:28;35.70;48.70
15013;DHT22;7603;49.432;11.418;2022-08-05T10:06:06;35.80;47.90
15013;DHT22;7603;49.432;11.418;2022-08-05T10:08:33;36.00;47.20
15013;DHT22;7603;49.432;11.418;2022-08-05T10:11:02;36.30;46.40
15013;DHT22;7603;49.432;11.418;2022-08-05T10:13:37;36.40;46.30
15013;DHT22;7603;49.432;11.418;2022-08-05T10:16:03;36.40;45.20
15013;DHT22;7603;49.432;11.418;2022-08-05T10:18:30;35.90;46.50
15013;DHT22;7603;49.432;11.418;2022-08-05T10:21:01;35.50;46.70
15013;DHT22;7603;49.432;11.418;2022-08-05T10:23:28;35.60;47.00
15013;DHT22;7603;49.432;11.418;2022-08-05T10:25:59;36.10;46.40
15013;DHT22;7603;49.432;11.418;2022-08-05T10:28:26;36.20;46.30
15013;DHT22;7603;49.432;11.418;2022-08-05T10:30:53;35.90;46.10
15013;DHT22;7603;49.432;11.418;2022-08-05T10:33:20;35.70;46.40
15013;DHT22;7603;49.432;11.418;2022-08-05T10:35:48;35.30;46.90
15013;DHT22;7603;49.432;11.418;2022-08-05T10:38:14;34.90;47.70
15013;DHT22;7603;49.432;11.418;2022-08-05T10:46:05;35.60;47.10
15013;DHT22;7603;49.432;11.418;2022-08-05T10:48:37;35.80;46.90
15013;DHT22;7603;49.432;11.418;2022-08-05T10:51:14;35.80;47.00
15013;DHT22;7603;49.432;11.418;2022-08-05T10:53:52;36.10;46.60
15013;DHT22;7603;49.432;11.418;2022-08-05T10:56:26;36.80;46.20
15013;DHT22;7603;49.432;11.418;2022-08-05T11:04:10;42.10;39.60
15013;DHT22;7603;49.432;11.418;2022-08-05T11:07:03;44.00;37.00
15013;DHT22;7603;49.432;11.418;2022-08-05T11:09:50;45.60;34.50
15013;DHT22;7603;49.432;11.418;2022-08-05T11:20:46;50.10;28.70
15013;DHT22;7603;49.432;11.418;2022-08-05T11:23:34;50.40;27.50
15013;DHT22;7603;49.432;11.418;2022-08-05T11:26:14;50.90;27.20
15013;DHT22;7603;49.432;11.418;2022-08-05T11:28:48;51.30;26.80
15013;DHT22;7603;49.432;11.418;2022-08-05T11:33:53;51.80;26.20
15013;DHT22;7603;49.432;11.418;2022-08-05T11:39:09;52.80;24.90
15013;DHT22;7603;49.432;11.418;2022-08-05T11:41:36;53.30;24.70
15013;DHT22;7603;49.432;11.418;2022-08-05T11:44:10;53.70;24.30
15013;DHT22;7603;49.432;11.418;2022-08-05T11:46:46;53.60;24.20
15013;DHT22;7603;49.432;11.418;2022-08-05T11:49:14;53.60;24.20
15013;DHT22;7603;49.432;11.418;2022-08-05T11:51:44;53.80;24.10
15013;DHT22;7603;49.432;11.418;2022-08-05T11:54:19;53.90;24.30
15013;DHT22;7603;49.432;11.418;2022-08-05T11:56:50;54.10;23.60
15013;DHT22;7603;49.432;11.418;2022-08-05T12:02:02;54.60;23.70
15013;DHT22;7603;49.432;11.418;2022-08-05T12:04:46;54.90;22.70
15013;DHT22;7603;49.432;11.418;2022-08-05T12:07:15;55.60;22.60
15013;DHT22;7603;49.432;11.418;2022-08-05T12:09:46;56.40;22.40
15013;DHT22;7603;49.432;11.418;2022-08-05T12:12:12;57.20;22.00
15013;DHT22;7603;49.432;11.418;2022-08-05T12:14:39;57.40;21.70
15013;DHT22;7603;49.432;11.418;2022-08-05T12:17:10;57.50;21.40
15013;DHT22;7603;49.432;11.418;2022-08-05T12:19:51;57.60;21.30
15013;DHT22;7603;49.432;11.418;2022-08-05T12:22:20;57.80;21.20
15013;DHT22;7603;49.432;11.418;2022-08-05T12:24:50;58.40;21.10
15013;DHT22;7603;49.432;11.418;2022-08-05T12:27:28;58.80;20.80
15013;DHT22;7603;49.432;11.418;2022-08-05T12:30:10;59.00;20.10
15013;DHT22;7603;49.432;11.418;2022-08-05T12:32:47;58.80;20.20
15013;DHT22;7603;49.432;11.418;2022-08-05T12:35:16;59.00;20.10
15013;DHT22;7603;49.432;11.418;2022-08-05T12:37:42;59.30;20.10
15013;DHT22;7603;49.432;11.418;2022-08-05T12:40:10;58.30;19.80
15013;DHT22;7603;49.432;11.418;2022-08-05T12:42:36;57.50;20.30
15013;DHT22;7603;49.432;11.418;2022-08-05T12:45:05;57.20;20.70
15013;DHT22;7603;49.432;11.418;2022-08-05T12:47:32;57.40;20.60
15013;DHT22;7603;49.432;11.418;2022-08-05T12:49:58;57.80;20.50
15013;DHT22;7603;49.432;11.418;2022-08-05T12:52:24;57.60;20.40
15013;DHT22;7603;49.432;11.418;2022-08-05T12:54:50;57.10;20.40
15013;DHT22;7603;49.432;11.418;2022-08-05T12:57:17;57.10;20.50
15013;DHT22;7603;49.432;11.418;2022-08-05T12:59:53;57.50;20.40
15013;DHT22;7603;49.432;11.418;2022-08-05T13:02:24;57.70;20.10
15013;DHT22;7603;49.432;11.418;2022-08-05T13:04:50;57.80;20.20
15013;DHT22;7603;49.432;11.418;2022-08-05T13:07:18;58.00;20.20
15013;DHT22;7603;49.432;11.418;2022-08-05T13:09:52;58.10;19.70
15013;DHT22;7603;49.432;11.418;2022-08-05T13:12:20;58.00;19.40
15013;DHT22;7603;49.432;11.418;2022-08-05T13:14:49;57.50;19.50
15013;DHT22;7603;49.432;11.418;2022-08-05T13:17:20;57.50;19.70
15013;DHT22;7603;49.432;11.418;2022-08-05T13:22:30;57.10;19.60
15013;DHT22;7603;49.432;11.418;2022-08-05T13:24:57;57.10;19.90
15013;DHT22;7603;49.432;11.418;2022-08-05T13:27:35;57.60;19.90
15013;DHT22;7603;49.432;11.418;2022-08-05T13:30:01;58.10;19.60
15013;DHT22;7603;49.432;11.418;2022-08-05T13:32:27;58.50;20.10
15013;DHT22;7603;49.432;11.418;2022-08-05T13:34:53;58.80;19.40
15013;DHT22;7603;49.432;11.418;2022-08-05T13:37:20;59.50;19.30
15013;DHT22;7603;49.432;11.418;2022-08-05T13:39:47;58.30;19.40
15013;DHT22;7603;49.432;11.418;2022-08-05T13:42:13;56.80;19.70
15013;DHT22;7603;49.432;11.418;2022-08-05T13:44:39;56.40;20.10
15013;DHT22;7603;49.432;11.418;2022-08-05T13:47:04;56.50;20.20
15013;DHT22;7603;49.432;11.418;2022-08-05T13:49:30;57.00;20.10
15013;DHT22;7603;49.432;11.418;2022-08-05T13:51:56;56.00;20.00
15013;DHT22;7603;49.432;11.418;2022-08-05T13:54:22;54.90;20.50
15013;DHT22;7603;49.432;11.418;2022-08-05T13:56:50;54.80;20.80
15013;DHT22;7603;49.432;11.418;2022-08-05T13:59:19;54.50;21.10
15013;DHT22;7603;49.432;11.418;2022-08-05T14:01:45;54.40;21.20
15013;DHT22;7603;49.432;11.418;2022-08-05T14:04:11;54.80;21.20
15013;DHT22;7603;49.432;11.418;2022-08-05T14:06:55;55.30;21.00
15013;DHT22;7603;49.432;11.418;2022-08-05T14:09:21;54.80;20.90
15013;DHT22;7603;49.432;11.418;2022-08-05T14:11:46;53.60;21.20
15013;DHT22;7603;49.432;11.418;2022-08-05T14:14:12;53.90;21.40
15013;DHT22;7603;49.432;11.418;2022-08-05T14:16:37;54.90;21.30
15013;DHT22;7603;49.432;11.418;2022-08-05T14:19:03;56.00;20.80
15013;DHT22;7603;49.432;11.418;2022-08-05T14:21:29;57.10;20.50
15013;DHT22;7603;49.432;11.418;2022-08-05T14:23:54;57.20;20.40
15013;DHT22;7603;49.432;11.418;2022-08-05T14:26:20;56.50;20.50
15013;DHT22;7603;49.432;11.418;2022-08-05T14:28:46;56.30;20.80
15013;DHT22;7603;49.432;11.418;2022-08-05T14:31:11;55.10;20.70
15013;DHT22;7603;49.432;11.418;2022-08-05T14:33:37;54.70;21.20
15013;DHT22;7603;49.432;11.418;2022-08-05T14:36:03;55.00;21.30
15013;DHT22;7603;49.432;11.418;2022-08-05T14:38:29;55.80;21.20
15013;DHT22;7603;49.432;11.418;2022-08-05T14:40:56;56.90;21.00
15013;DHT22;7603;49.432;11.418;2022-08-05T14:43:24;56.70;20.60
15013;DHT22;7603;49.432;11.418;2022-08-05T14:45:50;57.10;20.50
15013;DHT22;7603;49.432;11.418;2022-08-05T14:48:15;57.90;20.40
15013;DHT22;7603;49.432;11.418;2022-08-05T14:50:41;58.40;20.10
15013;DHT22;7603;49.432;11.418;2022-08-05T14:53:07;57.80;20.00
15013;DHT22;7603;49.432;11.418;2022-08-05T14:55:33;56.20;20.40
15013;DHT22;7603;49.432;11.418;2022-08-05T14:57:58;54.00;21.20
15013;DHT22;7603;49.432;11.418;2022-08-05T15:00:24;53.40;21.80
15013;DHT22;7603;49.432;11.418;2022-08-05T15:02:50;53.90;21.90
15013;DHT22;7603;49.432;11.418;2022-08-05T15:05:15;54.30;21.60
15013;DHT22;7603;49.432;11.418;2022-08-05T15:07:41;54.60;21.60
15013;DHT22;7603;49.432;11.418;2022-08-05T15:10:07;55.00;21.60
15013;DHT22;7603;49.432;11.418;2022-08-05T15:12:33;55.90;21.40
15013;DHT22;7603;49.432;11.418;2022-08-05T15:14:58;55.90;21.10
15013;DHT22;7603;49.432;11.418;2022-08-05T15:17:24;56.20;21.00
15013;DHT22;7603;49.432;11.418;2022-08-05T15:19:50;55.80;21.20
15013;DHT22;7603;49.432;11.418;2022-08-05T15:22:16;54.90;21.20
15013;DHT22;7603;49.432;11.418;2022-08-05T15:24:42;53.40;21.60
15013;DHT22;7603;49.432;11.418;2022-08-05T15:27:09;51.80;22.30
15013;DHT22;7603;49.432;11.418;2022-08-05T15:29:35;50.10;23.10
15013;DHT22;7603;49.432;11.418;2022-08-05T15:32:02;49.00;23.80
15013;DHT22;7603;49.432;11.418;2022-08-05T15:34:28;48.10;24.50
15013;DHT22;7603;49.432;11.418;2022-08-05T15:36:53;47.40;25.00
15013;DHT22;7603;49.432;11.418;2022-08-05T15:39:19;46.90;25.40
15013;DHT22;7603;49.432;11.418;2022-08-05T15:41:45;46.00;25.70
15013;DHT22;7603;49.432;11.418;2022-08-05T15:44:10;44.90;26.20
15013;DHT22;7603;49.432;11.418;2022-08-05T15:46:36;43.80;27.00
15013;DHT22;7603;49.432;11.418;2022-08-05T15:49:02;42.80;28.10
15013;DHT22;7603;49.432;11.418;2022-08-05T15:51:29;41.90;28.20
15013;DHT22;7603;49.432;11.418;2022-08-05T15:53:54;41.40;28.80
15013;DHT22;7603;49.432;11.418;2022-08-05T15:56:20;42.00;29.00
15013;DHT22;7603;49.432;11.418;2022-08-05T15:58:47;42.30;28.80
15013;DHT22;7603;49.432;11.418;2022-08-05T16:01:13;42.10;28.70
15013;DHT22;7603;49.432;11.418;2022-08-05T16:03:39;41.60;28.90
15013;DHT22;7603;49.432;11.418;2022-08-05T16:06:06;40.90;29.20
15013;DHT22;7603;49.432;11.418;2022-08-05T16:08:31;40.30;29.80
15013;DHT22;7603;49.432;11.418;2022-08-05T16:10:57;39.90;30.60
15013;DHT22;7603;49.432;11.418;2022-08-05T16:13:23;40.80;31.10
15013;DHT22;7603;49.432;11.418;2022-08-05T16:15:49;42.20;30.70
15013;DHT22;7603;49.432;11.418;2022-08-05T16:18:16;43.80;29.80
15013;DHT22;7603;49.432;11.418;2022-08-05T16:20:42;45.10;28.90